createdAt,value
2018-08-16T00:03:46.622Z,97322.47
2018-08-16T00:08:41.346Z,97325.37
2018-08-16T00:13:36.087Z,97322.64
2018-08-16T00:18:30.875Z,97315.77
2018-08-16T00:23:25.616Z,97312.25
2018-08-16T00:28:20.329Z,97313.31
2018-08-16T00:33:15.019Z,97304.91
2018-08-16T00:38:09.819Z,97297.66
2018-08-16T00:43:04.590Z,97293.20
2018-08-16T00:47:59.404Z,97292.44
2018-08-16T00:52:54.178Z,97298.27
2018-08-16T00:57:48.963Z,97297.55
2018-08-16T01:02:43.710Z,97299.48
2018-08-16T01:07:38.510Z,97292.53
2018-08-16T01:12:33.317Z,97289.70
2018-08-16T01:17:28.110Z,97288.30
2018-08-16T01:22:23.442Z,97282.33
2018-08-16T01:27:18.240Z,97285.79
2018-08-16T01:32:13.041Z,97282.80
2018-08-16T01:37:08.073Z,97283.35
2018-08-16T01:42:02.847Z,97277.22
2018-08-16T01:46:57.604Z,97276.83
2018-08-16T01:51:52.392Z,97274.64
2018-08-16T01:56:47.207Z,97277.34
2018-08-16T02:01:42.006Z,97280.25
2018-08-16T02:06:36.949Z,97274.18
2018-08-16T02:11:31.675Z,97277.89
2018-08-16T02:16:26.880Z,97274.36
2018-08-16T02:21:21.729Z,97276.00
2018-08-16T02:26:16.504Z,97274.36
2018-08-16T02:31:11.319Z,97269.08
2018-08-16T02:36:06.383Z,97268.94
2018-08-16T02:41:01.558Z,97265.66
2018-08-16T02:45:56.383Z,97264.79
2018-08-16T02:50:51.203Z,97265.99
2018-08-16T02:55:45.934Z,97267.32
2018-08-16T03:00:40.683Z,97269.81
2018-08-16T03:05:35.476Z,97263.15
2018-08-16T03:10:30.228Z,97259.27
2018-08-16T03:15:24.978Z,97259.98
2018-08-16T03:20:19.775Z,97255.95
2018-08-16T03:25:14.595Z,97257.83
2018-08-16T03:30:09.356Z,97249.41
2018-08-16T03:35:04.280Z,97256.02
2018-08-16T03:39:59.001Z,97252.94
2018-08-16T03:44:53.915Z,97253.06
2018-08-16T03:49:48.652Z,97247.97
2018-08-16T03:54:43.359Z,97254.25
2018-08-16T03:59:38.118Z,97257.39
2018-08-16T04:04:32.911Z,97258.95
2018-08-16T04:09:27.621Z,97253.50
2018-08-16T04:14:22.279Z,97257.43
2018-08-16T04:19:16.925Z,97266.87
2018-08-16T04:24:11.752Z,97265.22
2018-08-16T04:29:06.559Z,97265.22
2018-08-16T04:34:01.264Z,97267.03
2018-08-16T04:38:56.053Z,97275.50
2018-08-16T04:43:50.848Z,97277.05
2018-08-16T04:48:45.564Z,97267.61
2018-08-16T04:53:40.345Z,97271.29
2018-08-16T04:58:35.132Z,97271.69
2018-08-16T05:03:29.896Z,97258.09
2018-08-16T05:08:24.647Z,97263.47
2018-08-16T05:13:19.351Z,97260.88
2018-08-16T05:18:14.160Z,97261.12
2018-08-16T05:23:08.898Z,97263.36
2018-08-16T05:28:03.734Z,97269.88
2018-08-16T05:32:58.536Z,97267.81
2018-08-16T05:37:53.269Z,97263.33
2018-08-16T05:42:48.092Z,97262.95
2018-08-16T05:47:42.883Z,97262.83
2018-08-16T05:52:37.763Z,97260.17
2018-08-16T05:57:32.598Z,97262.88
2018-08-16T06:02:30.696Z,97264.20
2018-08-16T06:07:25.381Z,97265.90
2018-08-16T06:12:20.237Z,97261.75
2018-08-16T06:17:15.497Z,97262.53
2018-08-16T06:22:10.356Z,97259.95
2018-08-16T06:27:05.161Z,97264.16
2018-08-16T06:31:59.864Z,97261.16
2018-08-16T06:36:54.762Z,97261.84
2018-08-16T06:41:49.553Z,97260.41
2018-08-16T06:46:44.503Z,97254.19
2018-08-16T06:51:39.353Z,97251.92
2018-08-16T06:56:34.140Z,97242.65
2018-08-16T07:01:28.954Z,97239.73
2018-08-16T07:06:23.856Z,97245.55
2018-08-16T07:11:18.554Z,97247.02
2018-08-16T07:16:13.316Z,97242.16
2018-08-16T07:21:08.044Z,97240.40
2018-08-16T07:26:02.753Z,97236.84
2018-08-16T07:30:57.535Z,97234.83
2018-08-16T07:35:52.337Z,97233.59
2018-08-16T07:40:47.763Z,97234.48
2018-08-16T07:45:42.492Z,97237.94
2018-08-16T07:50:37.180Z,97234.09
2018-08-16T07:55:31.844Z,97232.32
2018-08-16T08:00:26.576Z,97234.63
2018-08-16T08:05:21.478Z,97230.05
2018-08-16T08:10:16.184Z,97226.28
2018-08-16T08:15:14.236Z,97220.73
2018-08-16T08:20:12.292Z,97223.29
2018-08-16T08:25:07.531Z,97214.50
2018-08-16T08:30:02.449Z,97208.56
2018-08-16T08:34:57.568Z,97203.59
2018-08-16T08:39:52.381Z,97192.06
2018-08-16T08:44:47.118Z,97190.50
2018-08-16T08:49:41.814Z,97183.14
2018-08-16T08:54:54.332Z,97179.61
2018-08-16T08:59:49.577Z,97172.91
2018-08-16T09:04:45.340Z,97175.90
2018-08-16T09:09:49.915Z,97170.60
2018-08-16T09:15:01.067Z,97168.81
2018-08-16T09:19:55.785Z,97163.13
2018-08-16T09:24:50.505Z,97154.12
2018-08-16T09:32:31.660Z,97147.81
2018-08-16T09:37:31.468Z,97140.84
2018-08-16T09:42:26.373Z,97136.34
2018-08-16T09:47:37.798Z,97129.81
2018-08-16T09:52:33.982Z,97126.67
2018-08-16T09:57:28.725Z,97118.70
2018-08-16T10:02:23.507Z,97116.30
2018-08-16T10:07:18.208Z,97110.77
2018-08-16T10:12:12.844Z,97104.52
2018-08-16T10:17:07.974Z,97105.72
2018-08-16T10:22:02.536Z,97094.92
2018-08-16T10:26:57.266Z,97088.53
2018-08-16T10:31:51.901Z,97086.20
2018-08-16T10:36:46.661Z,97078.41
2018-08-16T10:41:41.731Z,97066.02
2018-08-16T10:46:36.561Z,97063.45
2018-08-16T10:51:31.239Z,97062.24
2018-08-16T10:56:25.983Z,97061.83
2018-08-16T11:01:20.654Z,97054.09
2018-08-16T11:06:15.292Z,97044.22
2018-08-16T11:11:10.031Z,97040.72
2018-08-16T11:16:04.680Z,97037.72
2018-08-16T11:20:59.417Z,97036.09
2018-08-16T11:25:54.120Z,97037.56
2018-08-16T11:30:48.975Z,97031.00
2018-08-16T11:35:43.760Z,97028.69
2018-08-16T11:40:38.540Z,97030.18
2018-08-16T11:45:33.248Z,97021.20
2018-08-16T11:50:27.959Z,97022.93
2018-08-16T11:55:22.591Z,97012.70
2018-08-16T12:00:17.324Z,97005.05
2018-08-16T12:05:12.046Z,96998.16
2018-08-16T12:10:07.564Z,96986.31
2018-08-16T12:15:02.154Z,96991.09
2018-08-16T12:19:56.782Z,96987.86
2018-08-16T12:24:51.354Z,96982.20
2018-08-16T12:29:46.138Z,96979.64
2018-08-16T12:34:40.749Z,96978.59
2018-08-16T12:39:35.335Z,96976.20
2018-08-16T12:44:30.096Z,96969.75
2018-08-16T12:49:24.786Z,96970.89
2018-08-16T12:54:19.550Z,96951.62
2018-08-16T12:59:14.138Z,96960.26
2018-08-16T13:17:03.236Z,96952.25
2018-08-16T13:21:57.816Z,96925.98
2018-08-16T13:26:52.479Z,96917.97
2018-08-16T13:31:47.116Z,96916.30
2018-08-16T13:36:41.899Z,96902.78
2018-08-16T13:41:36.609Z,96902.39
2018-08-16T13:46:31.284Z,96895.06
2018-08-16T13:51:25.876Z,96889.21
2018-08-16T13:56:20.642Z,96883.77
2018-08-16T14:01:15.249Z,96882.27
2018-08-16T14:06:09.871Z,96878.78
2018-08-16T14:11:04.548Z,96873.57
2018-08-16T14:15:59.245Z,96864.08
2018-08-16T14:20:53.911Z,96857.25
2018-08-16T14:25:48.645Z,96855.70
2018-08-16T14:30:43.508Z,96852.53
2018-08-16T14:35:38.384Z,96853.31
2018-08-16T14:40:33.055Z,96845.42
2018-08-16T14:45:27.775Z,96851.58
2018-08-16T14:50:22.554Z,96836.42
2018-08-16T14:55:17.281Z,96835.30
2018-08-16T15:00:12.028Z,96837.23
2018-08-16T15:05:07.355Z,96835.52
2018-08-16T15:10:01.959Z,96830.61
2018-08-16T15:14:56.766Z,96823.81
2018-08-16T15:19:51.378Z,96823.81
2018-08-16T15:24:46.038Z,96825.13
2018-08-16T15:29:40.639Z,96828.49
2018-08-16T15:34:35.294Z,96822.83
2018-08-16T15:39:30.015Z,96825.39
2018-08-16T15:44:24.718Z,96821.99
2018-08-16T15:49:19.329Z,96822.39
2018-08-16T15:54:14.636Z,96812.02
2018-08-16T15:59:09.459Z,96815.59
2018-08-16T16:04:04.273Z,96810.39
2018-08-16T16:08:59.009Z,96808.59
2018-08-16T16:13:53.636Z,96801.50
2018-08-16T16:18:48.476Z,96801.11
2018-08-16T16:23:43.324Z,96794.39
2018-08-16T16:28:38.164Z,96797.22
2018-08-16T16:33:33.239Z,96790.16
2018-08-16T16:38:28.300Z,96782.81
2018-08-16T16:43:23.297Z,96785.23
2018-08-16T16:48:18.142Z,96777.72
2018-08-16T16:53:13.092Z,96773.28
2018-08-16T16:58:08.299Z,96774.42
2018-08-16T17:03:03.386Z,96776.01
2018-08-16T17:07:58.332Z,96773.55
2018-08-16T17:12:53.160Z,96772.52
2018-08-16T17:17:47.949Z,96770.37
2018-08-16T17:22:43.785Z,96767.59
2018-08-16T17:27:38.627Z,96774.62
2018-08-16T17:32:33.339Z,96771.84
2018-08-16T17:37:28.495Z,96768.37
2018-08-16T17:42:23.216Z,96769.84
2018-08-16T17:47:18.563Z,96770.74
2018-08-16T17:52:13.828Z,96774.58
2018-08-16T17:57:08.533Z,96769.41
2018-08-16T18:02:03.417Z,96767.20
2018-08-16T18:06:58.627Z,96769.97
2018-08-16T18:11:53.459Z,96769.81
2018-08-16T18:16:48.306Z,96770.77
2018-08-16T18:21:43.096Z,96780.19
2018-08-16T18:26:37.866Z,96783.72
2018-08-16T18:36:51.866Z,96780.61
2018-08-16T18:41:47.779Z,96790.48
2018-08-16T18:46:42.633Z,96790.35
2018-08-16T18:51:37.858Z,96796.73
2018-08-16T18:56:32.620Z,96795.05
2018-08-16T19:01:27.506Z,96800.07
2018-08-16T19:06:22.289Z,96803.31
2018-08-16T19:11:17.086Z,96801.95
2018-08-16T19:16:11.804Z,96797.67
2018-08-16T19:21:06.590Z,96803.53
2018-08-16T19:26:01.395Z,96815.88
2018-08-16T19:30:56.171Z,96820.11
2018-08-16T19:35:51.193Z,96814.45
2018-08-16T19:40:46.020Z,96815.14
2018-08-16T19:45:40.711Z,96818.84
2018-08-16T19:50:35.565Z,96822.89
2018-08-16T19:55:30.367Z,96820.34
2018-08-16T20:00:25.088Z,96825.95
2018-08-16T20:05:19.768Z,96820.92
2018-08-16T20:10:18.604Z,96829.02
2018-08-16T20:15:13.286Z,96821.41
2018-08-16T20:20:08.841Z,96824.28
2018-08-16T20:25:03.684Z,96826.24
2018-08-16T20:35:02.313Z,96819.43
2018-08-16T20:39:57.917Z,96822.46
2018-08-16T20:44:52.736Z,96826.16
2018-08-16T20:49:47.552Z,96829.47
2018-08-16T20:54:42.249Z,96831.28
2018-08-16T20:59:36.957Z,96832.00
2018-08-16T21:04:31.714Z,96837.78
2018-08-16T21:09:26.467Z,96846.37
2018-08-16T21:14:21.219Z,96839.98
2018-08-16T21:19:15.945Z,96844.85
2018-08-16T21:24:10.728Z,96840.45
2018-08-16T21:29:05.541Z,96841.05
2018-08-16T21:34:00.372Z,96851.52
2018-08-16T21:38:55.081Z,96853.52
2018-08-16T21:43:49.803Z,96850.53
2018-08-16T21:48:44.505Z,96855.56
2018-08-16T21:53:39.216Z,96854.27
2018-08-16T21:58:33.937Z,96858.80
2018-08-16T22:03:29.296Z,96854.77
2018-08-16T22:08:24.816Z,96852.63
2018-08-16T22:13:19.617Z,96856.05
2018-08-16T22:18:14.376Z,96856.70
2018-08-16T22:23:09.121Z,96858.98
2018-08-16T22:28:03.963Z,96857.98
2018-08-16T22:32:58.708Z,96864.29
2018-08-16T22:37:53.635Z,96855.27
2018-08-16T22:42:48.306Z,96851.09
2018-08-16T22:47:43.048Z,96852.66
2018-08-16T22:52:38.410Z,96862.06
2018-08-16T22:57:33.107Z,96852.06
2018-08-16T23:02:27.857Z,96858.98
2018-08-16T23:07:22.528Z,96858.94
2018-08-16T23:12:17.263Z,96858.52
2018-08-16T23:17:12.038Z,96854.37
2018-08-16T23:22:06.860Z,96857.51
2018-08-16T23:27:01.653Z,96855.25
2018-08-16T23:31:56.411Z,96851.05
2018-08-16T23:36:51.160Z,96846.25
2018-08-16T23:41:45.865Z,96847.36
2018-08-16T23:46:40.631Z,96848.75
2018-08-16T23:51:35.357Z,96856.41
2018-08-16T23:56:30.092Z,96850.83
